sensor_id;sensor_type;location;lat;lon;timestamp;P1;P2;P0
72918;PMS7003;68407;55.694;26.994;2023-06-22T00:01:56;12;11;8
72918;PMS7003;68407;55.694;26.994;2023-06-22T00:06:56;13.3;12;9.3
72918;PMS7003;68407;55.694;26.994;2023-06-22T00:12:46;14.4;12;8.8
72918;PMS7003;68407;55.694;26.994;2023-06-22T00:17:46;13;12.2;9.6
72918;PMS7003;68407;55.694;26.994;2023-06-22T00:22:34;12.8;11.2;8.6
72918;PMS7003;68407;55.694;26.994;2023-06-22T00:27:46;14.6;12;9
72918;PMS7003;68407;55.694;26.994;2023-06-22T00:32:34;12.8;12;8.4
72918;PMS7003;68407;55.694;26.994;2023-06-22T00:37:14;12.8;11.4;9
72918;PMS7003;68407;55.694;26.994;2023-06-22T00:42:32;14.4;12.2;9.6
72918;PMS7003;68407;55.694;26.994;2023-06-22T00:47:46;13;12;8.6
72918;PMS7003;68407;55.694;26.994;2023-06-22T00:52:24;12.4;11;8.2
72918;PMS7003;68407;55.694;26.994;2023-06-22T00:57:06;15.2;13;9.8
72918;PMS7003;68407;55.694;26.994;2023-06-22T01:02:46;13.8;12.6;9.2
72918;PMS7003;68407;55.694;26.994;2023-06-22T01:07:06;14.8;12.5;9.5
72918;PMS7003;68407;55.694;26.994;2023-06-22T01:12:04;14.8;12.8;9.8
72918;PMS7003;68407;55.694;26.994;2023-06-22T01:17:10;16.6;14.4;11
72918;PMS7003;68407;55.694;26.994;2023-06-22T01:22:30;14.6;13.4;10
72918;PMS7003;68407;55.694;26.994;2023-06-22T01:27:32;13.8;13;10
72918;PMS7003;68407;55.694;26.994;2023-06-22T01:32:34;14.4;12.8;9.2
72918;PMS7003;68407;55.694;26.994;2023-06-22T01:37:24;13.8;12.4;9.8
72918;PMS7003;68407;55.694;26.994;2023-06-22T01:42:26;15.6;13.2;10.2
72918;PMS7003;68407;55.694;26.994;2023-06-22T01:46:56;14.4;13.2;10.2
72918;PMS7003;68407;55.694;26.994;2023-06-22T01:52:16;15.4;13.2;9.4
72918;PMS7003;68407;55.694;26.994;2023-06-22T01:57:18;14;12.8;9.6
72918;PMS7003;68407;55.694;26.994;2023-06-22T02:02:49;16.4;13.8;10.2
72918;PMS7003;68407;55.694;26.994;2023-06-22T02:07:49;13.3;12.8;9.8
72918;PMS7003;68407;55.694;26.994;2023-06-22T02:12:26;14.8;14;10.6
72918;PMS7003;68407;55.694;26.994;2023-06-22T02:16:56;16;13.6;10.2
72918;PMS7003;68407;55.694;26.994;2023-06-22T02:21:58;14.8;12.8;10.4
72918;PMS7003;68407;55.694;26.994;2023-06-22T02:27:26;16;13.6;10.2
72918;PMS7003;68407;55.694;26.994;2023-06-22T02:32:16;17.6;15;10.8
72918;PMS7003;68407;55.694;26.994;2023-06-22T02:37:26;16;14;10.8
72918;PMS7003;68407;55.694;26.994;2023-06-22T02:42:48;15.8;14.4;11.8
72918;PMS7003;68407;55.694;26.994;2023-06-22T02:47:06;14.6;13;9
72918;PMS7003;68407;55.694;26.994;2023-06-22T02:51:56;13.8;13;10
72918;PMS7003;68407;55.694;26.994;2023-06-22T02:57:48;14.2;12;9.8
72918;PMS7003;68407;55.694;26.994;2023-06-22T03:02:36;16.8;14.6;10.8
72918;PMS7003;68407;55.694;26.994;2023-06-22T03:07:18;17;15.3;11
72918;PMS7003;68407;55.694;26.994;2023-06-22T03:12:26;14.6;13.6;10.4
72918;PMS7003;68407;55.694;26.994;2023-06-22T03:17:16;15.2;13.8;10.6
72918;PMS7003;68407;55.694;26.994;2023-06-22T03:22:06;14.6;13.8;10.6
72918;PMS7003;68407;55.694;26.994;2023-06-22T03:27:08;16.6;15.4;11
72918;PMS7003;68407;55.694;26.994;2023-06-22T03:32:48;17.2;15.4;10.8
72918;PMS7003;68407;55.694;26.994;2023-06-22T03:37:38;19.4;16;10.8
72918;PMS7003;68407;55.694;26.994;2023-06-22T03:42:18;18;14.8;11
72918;PMS7003;68407;55.694;26.994;2023-06-22T03:47:24;17.4;16;10.8
72918;PMS7003;68407;55.694;26.994;2023-06-22T03:52:46;16.2;14.6;11.4
72918;PMS7003;68407;55.694;26.994;2023-06-22T03:57:06;17.8;14.8;11.2
72918;PMS7003;68407;55.694;26.994;2023-06-22T04:02:36;17.4;15.6;12.2
72918;PMS7003;68407;55.694;26.994;2023-06-22T04:07:26;15.3;14.5;10.5
72918;PMS7003;68407;55.694;26.994;2023-06-22T04:12:38;17.6;16;12
72918;PMS7003;68407;55.694;26.994;2023-06-22T04:17:46;17.6;15.6;11.4
72918;PMS7003;68407;55.694;26.994;2023-06-22T04:21:56;18.8;15.4;11.6
72918;PMS7003;68407;55.694;26.994;2023-06-22T04:27:06;20;17.8;11.8
72918;PMS7003;68407;55.694;26.994;2023-06-22T04:31:56;19;16;11
72918;PMS7003;68407;55.694;26.994;2023-06-22T04:37:46;18.4;16.6;12.2
72918;PMS7003;68407;55.694;26.994;2023-06-22T04:42:34;16;15;11.2
72918;PMS7003;68407;55.694;26.994;2023-06-22T04:47:38;19.2;17.2;13
72918;PMS7003;68407;55.694;26.994;2023-06-22T04:52:48;16.8;15.8;11.4
72918;PMS7003;68407;55.694;26.994;2023-06-22T04:57:34;20;18.2;13.2
72918;PMS7003;68407;55.694;26.994;2023-06-22T05:01:56;17.2;15.4;11.2
72918;PMS7003;68407;55.694;26.994;2023-06-22T05:07:02;17.2;15;11.8
72918;PMS7003;68407;55.694;26.994;2023-06-22T05:12:46;17.5;14.5;11.5
72918;PMS7003;68407;55.694;26.994;2023-06-22T05:17:46;17.6;15.2;10.8
72918;PMS7003;68407;55.694;26.994;2023-06-22T05:22:46;15.4;13.8;11
72918;PMS7003;68407;55.694;26.994;2023-06-22T05:27:46;15.6;13.6;10.6
72918;PMS7003;68407;55.694;26.994;2023-06-22T05:32:32;15.6;13.8;10.4
72918;PMS7003;68407;55.694;26.994;2023-06-22T05:37:06;17;15.8;11.2
72918;PMS7003;68407;55.694;26.994;2023-06-22T05:42:32;15.6;13.6;10.4
72918;PMS7003;68407;55.694;26.994;2023-06-22T05:47:44;15.2;13.4;10.6
72918;PMS7003;68407;55.694;26.994;2023-06-22T05:52:28;16.8;15;10.6
72918;PMS7003;68407;55.694;26.994;2023-06-22T05:57:18;16;14.6;10.8
72918;PMS7003;68407;55.694;26.994;2023-06-22T06:02:46;13.8;13;9.4
72918;PMS7003;68407;55.694;26.994;2023-06-22T06:07:06;15.6;14.2;10
72918;PMS7003;68407;55.694;26.994;2023-06-22T06:12:16;14;13.3;10
72918;PMS7003;68407;55.694;26.994;2023-06-22T06:17:14;15.6;13.8;10.2
72918;PMS7003;68407;55.694;26.994;2023-06-22T06:22:28;17;14.6;10.2
72918;PMS7003;68407;55.694;26.994;2023-06-22T06:27:28;12.4;11.6;8.8
72918;PMS7003;68407;55.694;26.994;2023-06-22T06:32:44;13.8;12.4;8.8
72918;PMS7003;68407;55.694;26.994;2023-06-22T06:36:56;15;13.4;9.2
72918;PMS7003;68407;55.694;26.994;2023-06-22T06:42:16;14.4;12.8;9.4
72918;PMS7003;68407;55.694;26.994;2023-06-22T06:46:56;14.4;13;9.4
72918;PMS7003;68407;55.694;26.994;2023-06-22T06:51:56;13.6;12.6;9.4
72918;PMS7003;68407;55.694;26.994;2023-06-22T06:57:16;14.6;13.2;9.4
72918;PMS7003;68407;55.694;26.994;2023-06-22T07:02:26;15.8;14.2;10.4
72918;PMS7003;68407;55.694;26.994;2023-06-22T07:07:44;16.2;13.6;10
72918;PMS7003;68407;55.694;26.994;2023-06-22T07:12:22;17.5;15;11.3
72918;PMS7003;68407;55.694;26.994;2023-06-22T07:17:12;14.2;13.2;10
72918;PMS7003;68407;55.694;26.994;2023-06-22T07:22:24;15.8;14.4;10.8
72918;PMS7003;68407;55.694;26.994;2023-06-22T07:27:14;17.8;16.2;11.6
72918;PMS7003;68407;55.694;26.994;2023-06-22T07:32:16;17.4;14.8;11
72918;PMS7003;68407;55.694;26.994;2023-06-22T07:37:22;18.2;16.6;11.8
72918;PMS7003;68407;55.694;26.994;2023-06-22T07:42:34;17.6;14.6;10.2
72918;PMS7003;68407;55.694;26.994;2023-06-22T07:46:54;18.2;16.2;11.4
72918;PMS7003;68407;55.694;26.994;2023-06-22T07:52:21;16.8;14.8;11
72918;PMS7003;68407;55.694;26.994;2023-06-22T07:57:46;18.8;16.8;12.4
72918;PMS7003;68407;55.694;26.994;2023-06-22T08:02:34;18.4;16.4;11.6
72918;PMS7003;68407;55.694;26.994;2023-06-22T08:07:16;16.8;15.2;11.8
72918;PMS7003;68407;55.694;26.994;2023-06-22T08:12:24;20.3;18;13
72918;PMS7003;68407;55.694;26.994;2023-06-22T08:17:46;17.6;16.4;11.2
72918;PMS7003;68407;55.694;26.994;2023-06-22T08:22:06;19.6;17.2;11.8
72918;PMS7003;68407;55.694;26.994;2023-06-22T08:27:14;19.8;18;12.6
72918;PMS7003;68407;55.694;26.994;2023-06-22T08:32:32;18.8;16.4;12
72918;PMS7003;68407;55.694;26.994;2023-06-22T08:37:34;20.8;18;12.8
72918;PMS7003;68407;55.694;26.994;2023-06-22T08:42:48;22.8;19;13.8
72918;PMS7003;68407;55.694;26.994;2023-06-22T08:47:24;22;19.6;13.4
72918;PMS7003;68407;55.694;26.994;2023-06-22T08:51:56;22.6;19.6;14.6
72918;PMS7003;68407;55.694;26.994;2023-06-22T08:56:56;21;19.4;14.2
72918;PMS7003;68407;55.694;26.994;2023-06-22T09:02:44;21.8;18.8;13.6
72918;PMS7003;68407;55.694;26.994;2023-06-22T09:07:32;23;20.2;14.2
72918;PMS7003;68407;55.694;26.994;2023-06-22T09:12:38;23.3;20.5;14.5
72918;PMS7003;68407;55.694;26.994;2023-06-22T09:17:44;23.8;21.4;15.2
72918;PMS7003;68407;55.694;26.994;2023-06-22T09:22:32;21.4;19;14.8
72918;PMS7003;68407;55.694;26.994;2023-06-22T09:27:06;27;23.6;17.4
72918;PMS7003;68407;55.694;26.994;2023-06-22T09:32:06;22.2;18.4;13.4
72918;PMS7003;68407;55.694;26.994;2023-06-22T09:37:46;19.4;18.2;12.6
72918;PMS7003;68407;55.694;26.994;2023-06-22T09:42:46;20.6;18.2;13.6
72918;PMS7003;68407;55.694;26.994;2023-06-22T09:47:46;17;15.4;11
72918;PMS7003;68407;55.694;26.994;2023-06-22T09:52:46;15.8;14.2;10.8
72918;PMS7003;68407;55.694;26.994;2023-06-22T09:57:34;15.4;13.2;10.2
72918;PMS7003;68407;55.694;26.994;2023-06-22T10:01:56;14.6;13.4;9.8
72918;PMS7003;68407;55.694;26.994;2023-06-22T10:07:34;13;12.2;9.4
72918;PMS7003;68407;55.694;26.994;2023-06-22T10:12:47;13.6;12.4;9.2
72918;PMS7003;68407;55.694;26.994;2023-06-22T10:17:24;15.5;13.3;9.8
72918;PMS7003;68407;55.694;26.994;2023-06-22T10:22:46;15.4;13.2;9.8
72918;PMS7003;68407;55.694;26.994;2023-06-22T10:27:44;22.4;19;13.2
72918;PMS7003;68407;55.694;26.994;2023-06-22T10:32:20;36.4;28.8;19
72918;PMS7003;68407;55.694;26.994;2023-06-22T10:37:16;23.4;20.4;14.8
72918;PMS7003;68407;55.694;26.994;2023-06-22T10:42:04;21;18.2;12.4
72918;PMS7003;68407;55.694;26.994;2023-06-22T10:47:30;18.4;17.2;12.8
72918;PMS7003;68407;55.694;26.994;2023-06-22T10:52:28;18.6;17;12.8
72918;PMS7003;68407;55.694;26.994;2023-06-22T10:57:34;18.8;17;11.8
72918;PMS7003;68407;55.694;26.994;2023-06-22T11:02:06;15.6;14.2;11.4
72918;PMS7003;68407;55.694;26.994;2023-06-22T11:06:56;16;14.8;11.4
72918;PMS7003;68407;55.694;26.994;2023-06-22T11:12:04;15.4;14.8;10.4
72918;PMS7003;68407;55.694;26.994;2023-06-22T11:16:56;17;15.3;11.3
72918;PMS7003;68407;55.694;26.994;2023-06-22T11:22:08;17;14;10.8
72918;PMS7003;68407;55.694;26.994;2023-06-22T11:27:28;18;16.4;12
72918;PMS7003;68407;55.694;26.994;2023-06-22T11:32:44;18.2;15.4;10.6
72918;PMS7003;68407;55.694;26.994;2023-06-22T11:37:22;16.4;14.6;11.6
72918;PMS7003;68407;55.694;26.994;2023-06-22T11:41:54;17.6;15.8;11
72918;PMS7003;68407;55.694;26.994;2023-06-22T11:47:44;19.8;17.2;13
72918;PMS7003;68407;55.694;26.994;2023-06-22T11:52:12;18.2;15.6;11
72918;PMS7003;68407;55.694;26.994;2023-06-22T11:57:18;22;18.4;12.8
72918;PMS7003;68407;55.694;26.994;2023-06-22T12:02:22;20.4;17.4;13
72918;PMS7003;68407;55.694;26.994;2023-06-22T12:07:34;20.8;19;13.6
72918;PMS7003;68407;55.694;26.994;2023-06-22T12:11:56;21.4;18.4;13.4
72918;PMS7003;68407;55.694;26.994;2023-06-22T12:17:04;20.5;19;14
72918;PMS7003;68407;55.694;26.994;2023-06-22T12:22:44;20.6;18;13.4
72918;PMS7003;68407;55.694;26.994;2023-06-22T12:27:34;19.6;17.6;13.2
72918;PMS7003;68407;55.694;26.994;2023-06-22T12:32:16;24.4;22;15
72918;PMS7003;68407;55.694;26.994;2023-06-22T12:37:12;22.8;20.2;14.4
72918;PMS7003;68407;55.694;26.994;2023-06-22T12:42:48;20.6;18.8;14
72918;PMS7003;68407;55.694;26.994;2023-06-22T12:46:56;22.4;20.6;15
72918;PMS7003;68407;55.694;26.994;2023-06-22T12:52:12;22.2;20;14.4
72918;PMS7003;68407;55.694;26.994;2023-06-22T12:57:24;22.4;20.8;15.2
72918;PMS7003;68407;55.694;26.994;2023-06-22T13:02:35;23.6;20.6;15
72918;PMS7003;68407;55.694;26.994;2023-06-22T13:07:48;23.4;20.4;15.4
72918;PMS7003;68407;55.694;26.994;2023-06-22T13:12:38;22.8;21.4;16
72918;PMS7003;68407;55.694;26.994;2023-06-22T13:16:56;24.5;20.8;15.3
72918;PMS7003;68407;55.694;26.994;2023-06-22T13:21:56;24;22.6;15.8
72918;PMS7003;68407;55.694;26.994;2023-06-22T13:27:26;26.2;23.6;15.8
72918;PMS7003;68407;55.694;26.994;2023-06-22T13:32:34;23.8;21.6;15.6
72918;PMS7003;68407;55.694;26.994;2023-06-22T13:37:38;25;23;16.4
72918;PMS7003;68407;55.694;26.994;2023-06-22T13:42:48;24.2;22.2;16.6
72918;PMS7003;68407;55.694;26.994;2023-06-22T13:47:32;23.4;22;14.6
72918;PMS7003;68407;55.694;26.994;2023-06-22T13:52:04;26.8;24.2;16.8
72918;PMS7003;68407;55.694;26.994;2023-06-22T13:57:04;23.6;22;15
72918;PMS7003;68407;55.694;26.994;2023-06-22T14:02:48;22;19.8;15.2
72918;PMS7003;68407;55.694;26.994;2023-06-22T14:07:44;24.4;21.4;15.8
72918;PMS7003;68407;55.694;26.994;2023-06-22T14:12:45;25.6;23.2;16
72918;PMS7003;68407;55.694;26.994;2023-06-22T14:17:36;26.3;23;16
72918;PMS7003;68407;55.694;26.994;2023-06-22T14:22:32;24.4;21.4;15
72918;PMS7003;68407;55.694;26.994;2023-06-22T14:27:29;22.4;20.8;14.8
72918;PMS7003;68407;55.694;26.994;2023-06-22T14:32:14;24.2;21.8;14.6
72918;PMS7003;68407;55.694;26.994;2023-06-22T14:37:48;23.2;20.6;15
72918;PMS7003;68407;55.694;26.994;2023-06-22T14:42:28;21.8;19.8;13.8
72918;PMS7003;68407;55.694;26.994;2023-06-22T14:47:16;19.2;18;12.8
72918;PMS7003;68407;55.694;26.994;2023-06-22T14:52:48;21;18.8;13.2
72918;PMS7003;68407;55.694;26.994;2023-06-22T14:57:06;21.8;19.8;14.2
72918;PMS7003;68407;55.694;26.994;2023-06-22T15:02:05;22.2;19;13.4
72918;PMS7003;68407;55.694;26.994;2023-06-22T15:06:56;20.2;17.8;13
72918;PMS7003;68407;55.694;26.994;2023-06-22T15:12:28;21.8;18.6;14
72918;PMS7003;68407;55.694;26.994;2023-06-22T15:17:28;19.4;17.2;13.2
72918;PMS7003;68407;55.694;26.994;2023-06-22T15:22:32;21.5;18.5;13.8
72918;PMS7003;68407;55.694;26.994;2023-06-22T15:27:46;20.2;18.2;13.4
72918;PMS7003;68407;55.694;26.994;2023-06-22T15:32:05;21.6;18.4;13.6
72918;PMS7003;68407;55.694;26.994;2023-06-22T15:37:04;20.8;17.6;12.8
72918;PMS7003;68407;55.694;26.994;2023-06-22T15:41:56;23;19.6;13.8
72918;PMS7003;68407;55.694;26.994;2023-06-22T15:47:16;24.2;21.4;14.8
72918;PMS7003;68407;55.694;26.994;2023-06-22T15:52:47;21.4;19.6;14.6
72918;PMS7003;68407;55.694;26.994;2023-06-22T15:57:48;21.2;18.6;14
72918;PMS7003;68407;55.694;26.994;2023-06-22T16:02:22;21.6;20.6;14.4
72918;PMS7003;68407;55.694;26.994;2023-06-22T16:07:06;20.2;18.2;13.6
72918;PMS7003;68407;55.694;26.994;2023-06-22T16:11:58;22.2;19.4;14.2
72918;PMS7003;68407;55.694;26.994;2023-06-22T16:17:14;21;18;13.8
72918;PMS7003;68407;55.694;26.994;2023-06-22T16:22:06;20.3;19;14.3
72918;PMS7003;68407;55.694;26.994;2023-06-22T16:27:34;21.2;19.2;14.2
72918;PMS7003;68407;55.694;26.994;2023-06-22T16:32:50;19.4;18.4;13.6
72918;PMS7003;68407;55.694;26.994;2023-06-22T16:37:05;20;18.6;13.8
72918;PMS7003;68407;55.694;26.994;2023-06-22T16:41:56;19;17.4;12.6
72918;PMS7003;68407;55.694;26.994;2023-06-22T16:47:49;17;15.2;10.8
72918;PMS7003;68407;55.694;26.994;2023-06-22T16:52:38;14.2;13.2;10.4
72918;PMS7003;68407;55.694;26.994;2023-06-22T16:57:18;16.6;14.4;10.4
72918;PMS7003;68407;55.694;26.994;2023-06-22T17:02:05;15;14.2;10.6
72918;PMS7003;68407;55.694;26.994;2023-06-22T17:07:52;15.2;12.6;9.4
72918;PMS7003;68407;55.694;26.994;2023-06-22T17:12:17;16.4;13.8;11
72918;PMS7003;68407;55.694;26.994;2023-06-22T17:17:42;16.4;14.4;10.6
72918;PMS7003;68407;55.694;26.994;2023-06-22T17:22:33;15.8;14.3;10.8
72918;PMS7003;68407;55.694;26.994;2023-06-22T17:27:36;14.2;13;9.8
72918;PMS7003;68407;55.694;26.994;2023-06-22T17:32:47;16.8;13.6;10.2
72918;PMS7003;68407;55.694;26.994;2023-06-22T17:36:57;16.6;14.8;10.4
72918;PMS7003;68407;55.694;26.994;2023-06-22T17:42:14;13.6;13;10
72918;PMS7003;68407;55.694;26.994;2023-06-22T17:47:04;16.2;15;11.4
72918;PMS7003;68407;55.694;26.994;2023-06-22T17:52:50;15.6;13.8;10.4
72918;PMS7003;68407;55.694;26.994;2023-06-22T17:57:35;15;13.8;10.2
72918;PMS7003;68407;55.694;26.994;2023-06-22T18:02:19;16.4;14.8;11.2
72918;PMS7003;68407;55.694;26.994;2023-06-22T18:07:44;16.8;15.2;11
72918;PMS7003;68407;55.694;26.994;2023-06-22T18:12:35;17.2;14.8;10.8
72918;PMS7003;68407;55.694;26.994;2023-06-22T18:17:14;18.2;15.8;11.6
72918;PMS7003;68407;55.694;26.994;2023-06-22T18:22:17;18;15.3;11.5
72918;PMS7003;68407;55.694;26.994;2023-06-22T18:27:45;16;15.2;11.4
72918;PMS7003;68407;55.694;26.994;2023-06-22T18:32:45;16.8;15.4;11
72918;PMS7003;68407;55.694;26.994;2023-06-22T18:37:45;18.2;15;11.4
72918;PMS7003;68407;55.694;26.994;2023-06-22T18:42:45;17.4;15;11.2
72918;PMS7003;68407;55.694;26.994;2023-06-22T18:47:33;15.4;13.8;10.6
72918;PMS7003;68407;55.694;26.994;2023-06-22T18:52:45;15;14.2;10.4
72918;PMS7003;68407;55.694;26.994;2023-06-22T18:57:33;15.6;14.2;10
72918;PMS7003;68407;55.694;26.994;2023-06-22T19:02:45;17.2;14.6;10.8
72918;PMS7003;68407;55.694;26.994;2023-06-22T19:07:27;16.4;14.4;11
72918;PMS7003;68407;55.694;26.994;2023-06-22T19:12:18;18;16.4;11.4
72918;PMS7003;68407;55.694;26.994;2023-06-22T19:17:45;14.8;13.2;10
72918;PMS7003;68407;55.694;26.994;2023-06-22T19:21:57;17.3;15;10.5
72918;PMS7003;68407;55.694;26.994;2023-06-22T19:27:05;16.6;14.2;10.8
72918;PMS7003;68407;55.694;26.994;2023-06-22T19:31:57;15.6;14;10
72918;PMS7003;68407;55.694;26.994;2023-06-22T19:37:27;16;14;10
72918;PMS7003;68407;55.694;26.994;2023-06-22T19:42:27;14.2;13.6;9.6
72918;PMS7003;68407;55.694;26.994;2023-06-22T19:47:33;15.2;13.2;9.6
72918;PMS7003;68407;55.694;26.994;2023-06-22T19:52:23;15.4;13.2;9.2
72918;PMS7003;68407;55.694;26.994;2023-06-22T19:57:05;15.2;14.2;9.6
72918;PMS7003;68407;55.694;26.994;2023-06-22T20:01:57;17.4;14.8;10.8
72918;PMS7003;68407;55.694;26.994;2023-06-22T20:07:34;14.8;12.8;9.2
72918;PMS7003;68407;55.694;26.994;2023-06-22T20:12:22;15.2;14;10
72918;PMS7003;68407;55.694;26.994;2023-06-22T20:17:19;17.2;14.6;9.8
72918;PMS7003;68407;55.694;26.994;2023-06-22T20:22:45;14.6;12.6;9
72918;PMS7003;68407;55.694;26.994;2023-06-22T20:27:24;16.5;14.8;10.8
72918;PMS7003;68407;55.694;26.994;2023-06-22T20:32:04;15.6;13.6;10
72918;PMS7003;68407;55.694;26.994;2023-06-22T20:37:19;14.6;12.6;9.8
72918;PMS7003;68407;55.694;26.994;2023-06-22T20:42:13;14.2;13;9.4
72918;PMS7003;68407;55.694;26.994;2023-06-22T20:47:17;15.6;13.8;9.4
72918;PMS7003;68407;55.694;26.994;2023-06-22T20:52:05;16;14;10
72918;PMS7003;68407;55.694;26.994;2023-06-22T20:57:35;15.2;14.4;10.2
72918;PMS7003;68407;55.694;26.994;2023-06-22T21:02:13;16.8;14.6;10.8
72918;PMS7003;68407;55.694;26.994;2023-06-22T21:07:23;16.6;15.4;11
72918;PMS7003;68407;55.694;26.994;2023-06-22T21:12:48;16.4;14.8;10.8
72918;PMS7003;68407;55.694;26.994;2023-06-22T21:17:37;16.8;14.6;11.2
72918;PMS7003;68407;55.694;26.994;2023-06-22T21:21:57;16.4;15;11.2
72918;PMS7003;68407;55.694;26.994;2023-06-22T21:27:23;15.3;14;9.5
72918;PMS7003;68407;55.694;26.994;2023-06-22T21:32:47;13;11.8;8.8
72918;PMS7003;68407;55.694;26.994;2023-06-22T21:36:57;17.6;15;10.2
72918;PMS7003;68407;55.694;26.994;2023-06-22T21:42:03;15.4;13.4;9.4
72918;PMS7003;68407;55.694;26.994;2023-06-22T21:47:25;17.4;13.2;9.6
72918;PMS7003;68407;55.694;26.994;2023-06-22T21:52:37;13.6;12.6;9
72918;PMS7003;68407;55.694;26.994;2023-06-22T21:57:47;13.6;11.6;9.2
72918;PMS7003;68407;55.694;26.994;2023-06-22T22:01:55;13.6;11.6;8.8
72918;PMS7003;68407;55.694;26.994;2023-06-22T22:07:23;13.4;12.4;9.2
72918;PMS7003;68407;55.694;26.994;2023-06-22T22:12:05;13.4;11.6;8.6
72918;PMS7003;68407;55.694;26.994;2023-06-22T22:17:47;12.4;10;7
72918;PMS7003;68407;55.694;26.994;2023-06-22T22:22:31;13;11.2;8.2
72918;PMS7003;68407;55.694;26.994;2023-06-22T22:27:35;10.5;8.8;6.5
72918;PMS7003;68407;55.694;26.994;2023-06-22T22:32:45;11;9.6;7
72918;PMS7003;68407;55.694;26.994;2023-06-22T22:37:45;10.6;9.4;7.4
72918;PMS7003;68407;55.694;26.994;2023-06-22T22:42:47;11.4;9.4;7.4
72918;PMS7003;68407;55.694;26.994;2023-06-22T22:47:05;13;10.4;7.8
72918;PMS7003;68407;55.694;26.994;2023-06-22T22:52:47;11.2;9.6;6.8
72918;PMS7003;68407;55.694;26.994;2023-06-22T22:57:47;12;9.4;6.4
72918;PMS7003;68407;55.694;26.994;2023-06-22T23:02:47;11;9.8;7
72918;PMS7003;68407;55.694;26.994;2023-06-22T23:07:37;11.4;9.4;6.8
72918;PMS7003;68407;55.694;26.994;2023-06-22T23:12:31;11.2;9.6;7.2
72918;PMS7003;68407;55.694;26.994;2023-06-22T23:17:13;10.8;8.6;6.4
72918;PMS7003;68407;55.694;26.994;2023-06-22T23:22:34;10.4;9.2;6.8
72918;PMS7003;68407;55.694;26.994;2023-06-22T23:27:45;11.8;10;7.3
72918;PMS7003;68407;55.694;26.994;2023-06-22T23:32:07;11.8;10;7.4
72918;PMS7003;68407;55.694;26.994;2023-06-22T23:37:05;10;9.2;6.6
72918;PMS7003;68407;55.694;26.994;2023-06-22T23:42:45;9.6;9;7.4
72918;PMS7003;68407;55.694;26.994;2023-06-22T23:47:17;11.6;9;7
72918;PMS7003;68407;55.694;26.994;2023-06-22T23:52:13;11.6;9.6;7.2
72918;PMS7003;68407;55.694;26.994;2023-06-22T23:56:57;11.6;10.6;7.4
